sensor_id;sensor_type;location;lat;lon;timestamp;P1;durP1;ratioP1;P2;durP2;ratioP2
62941;SDS011;49042;47.318;19.874;2022-10-17T00:01:58;34.05;;;19.73;;
62941;SDS011;49042;47.318;19.874;2022-10-17T00:05:00;32.22;;;17.65;;
62941;SDS011;49042;47.318;19.874;2022-10-17T00:08:01;32.70;;;18.20;;
62941;SDS011;49042;47.318;19.874;2022-10-17T00:11:04;33.13;;;19.25;;
62941;SDS011;49042;47.318;19.874;2022-10-17T00:14:09;29.37;;;18.45;;
62941;SDS011;49042;47.318;19.874;2022-10-17T00:17:11;33.72;;;17.15;;
62941;SDS011;49042;47.318;19.874;2022-10-17T00:20:13;30.30;;;15.65;;
62941;SDS011;49042;47.318;19.874;2022-10-17T00:23:16;29.83;;;15.30;;
62941;SDS011;49042;47.318;19.874;2022-10-17T00:26:18;31.20;;;14.98;;
62941;SDS011;49042;47.318;19.874;2022-10-17T00:29:21;30.73;;;15.15;;
62941;SDS011;49042;47.318;19.874;2022-10-17T00:32:23;28.17;;;15.32;;
62941;SDS011;49042;47.318;19.874;2022-10-17T00:35:24;25.15;;;13.98;;
62941;SDS011;49042;47.318;19.874;2022-10-17T00:38:26;23.90;;;13.13;;
62941;SDS011;49042;47.318;19.874;2022-10-17T00:41:29;24.60;;;13.75;;
62941;SDS011;49042;47.318;19.874;2022-10-17T00:47:34;27.75;;;12.85;;
62941;SDS011;49042;47.318;19.874;2022-10-17T00:50:38;24.77;;;12.10;;
62941;SDS011;49042;47.318;19.874;2022-10-17T00:54:00;22.48;;;12.88;;
62941;SDS011;49042;47.318;19.874;2022-10-17T00:57:03;25.08;;;12.27;;
62941;SDS011;49042;47.318;19.874;2022-10-17T01:00:06;19.27;;;11.93;;
62941;SDS011;49042;47.318;19.874;2022-10-17T01:03:09;21.20;;;12.98;;
62941;SDS011;49042;47.318;19.874;2022-10-17T01:06:10;20.08;;;12.00;;
62941;SDS011;49042;47.318;19.874;2022-10-17T01:09:12;21.10;;;12.63;;
62941;SDS011;49042;47.318;19.874;2022-10-17T01:12:16;19.10;;;12.60;;
62941;SDS011;49042;47.318;19.874;2022-10-17T01:15:35;21.08;;;12.50;;
62941;SDS011;49042;47.318;19.874;2022-10-17T01:22:21;20.50;;;11.77;;
62941;SDS011;49042;47.318;19.874;2022-10-17T01:25:35;21.73;;;12.73;;
62941;SDS011;49042;47.318;19.874;2022-10-17T01:31:56;18.62;;;11.60;;
62941;SDS011;49042;47.318;19.874;2022-10-17T01:38:23;20.35;;;11.27;;
62941;SDS011;49042;47.318;19.874;2022-10-17T01:45:32;19.20;;;10.63;;
62941;SDS011;49042;47.318;19.874;2022-10-17T01:48:42;21.55;;;11.12;;
62941;SDS011;49042;47.318;19.874;2022-10-17T01:51:47;18.17;;;11.73;;
62941;SDS011;49042;47.318;19.874;2022-10-17T01:54:55;20.85;;;11.63;;
62941;SDS011;49042;47.318;19.874;2022-10-17T01:58:04;23.83;;;12.90;;
62941;SDS011;49042;47.318;19.874;2022-10-17T02:01:10;18.65;;;11.70;;
62941;SDS011;49042;47.318;19.874;2022-10-17T02:04:13;19.48;;;11.40;;
62941;SDS011;49042;47.318;19.874;2022-10-17T02:07:16;17.30;;;11.52;;
62941;SDS011;49042;47.318;19.874;2022-10-17T02:10:20;24.25;;;12.90;;
62941;SDS011;49042;47.318;19.874;2022-10-17T02:13:37;18.35;;;11.35;;
62941;SDS011;49042;47.318;19.874;2022-10-17T02:20:36;20.58;;;11.82;;
62941;SDS011;49042;47.318;19.874;2022-10-17T02:23:52;19.83;;;11.48;;
62941;SDS011;49042;47.318;19.874;2022-10-17T02:27:05;19.10;;;11.93;;
62941;SDS011;49042;47.318;19.874;2022-10-17T02:30:21;29.15;;;12.20;;
62941;SDS011;49042;47.318;19.874;2022-10-17T02:37:06;29.42;;;13.30;;
62941;SDS011;49042;47.318;19.874;2022-10-17T02:40:11;29.23;;;12.57;;
62941;SDS011;49042;47.318;19.874;2022-10-17T02:43:15;30.50;;;12.98;;
62941;SDS011;49042;47.318;19.874;2022-10-17T02:46:17;23.15;;;12.05;;
62941;SDS011;49042;47.318;19.874;2022-10-17T02:49:23;29.60;;;12.77;;
62941;SDS011;49042;47.318;19.874;2022-10-17T02:52:41;29.00;;;13.35;;
62941;SDS011;49042;47.318;19.874;2022-10-17T02:55:50;28.58;;;12.68;;
62941;SDS011;49042;47.318;19.874;2022-10-17T02:58:57;22.25;;;11.93;;
62941;SDS011;49042;47.318;19.874;2022-10-17T03:02:04;30.92;;;13.13;;
62941;SDS011;49042;47.318;19.874;2022-10-17T03:05:07;34.67;;;13.90;;
62941;SDS011;49042;47.318;19.874;2022-10-17T03:08:09;24.35;;;13.00;;
62941;SDS011;49042;47.318;19.874;2022-10-17T03:11:12;24.50;;;12.10;;
62941;SDS011;49042;47.318;19.874;2022-10-17T03:14:13;24.95;;;12.95;;
62941;SDS011;49042;47.318;19.874;2022-10-17T03:17:15;26.35;;;12.93;;
62941;SDS011;49042;47.318;19.874;2022-10-17T03:20:17;26.75;;;12.65;;
62941;SDS011;49042;47.318;19.874;2022-10-17T03:23:18;22.23;;;13.62;;
62941;SDS011;49042;47.318;19.874;2022-10-17T03:26:20;29.50;;;13.32;;
62941;SDS011;49042;47.318;19.874;2022-10-17T03:29:22;23.85;;;13.45;;
62941;SDS011;49042;47.318;19.874;2022-10-17T03:32:23;23.45;;;14.23;;
62941;SDS011;49042;47.318;19.874;2022-10-17T03:35:26;25.17;;;14.15;;
62941;SDS011;49042;47.318;19.874;2022-10-17T03:38:27;21.73;;;13.10;;
62941;SDS011;49042;47.318;19.874;2022-10-17T03:41:29;26.00;;;15.10;;
62941;SDS011;49042;47.318;19.874;2022-10-17T03:44:31;18.50;;;12.82;;
62941;SDS011;49042;47.318;19.874;2022-10-17T03:47:33;23.67;;;13.75;;
62941;SDS011;49042;47.318;19.874;2022-10-17T03:50:35;21.80;;;12.32;;
62941;SDS011;49042;47.318;19.874;2022-10-17T03:53:36;26.48;;;12.18;;
62941;SDS011;49042;47.318;19.874;2022-10-17T03:56:38;22.48;;;13.02;;
62941;SDS011;49042;47.318;19.874;2022-10-17T03:59:40;28.12;;;13.55;;
62941;SDS011;49042;47.318;19.874;2022-10-17T04:02:41;27.75;;;13.27;;
62941;SDS011;49042;47.318;19.874;2022-10-17T04:05:45;23.73;;;14.23;;
62941;SDS011;49042;47.318;19.874;2022-10-17T04:08:46;18.65;;;12.68;;
62941;SDS011;49042;47.318;19.874;2022-10-17T04:11:48;27.02;;;13.38;;
62941;SDS011;49042;47.318;19.874;2022-10-17T04:14:50;32.03;;;19.45;;
62941;SDS011;49042;47.318;19.874;2022-10-17T04:17:52;29.30;;;19.42;;
62941;SDS011;49042;47.318;19.874;2022-10-17T04:20:54;41.78;;;27.45;;
62941;SDS011;49042;47.318;19.874;2022-10-17T04:23:57;42.75;;;29.30;;
62941;SDS011;49042;47.318;19.874;2022-10-17T04:27:00;43.58;;;28.33;;
62941;SDS011;49042;47.318;19.874;2022-10-17T04:30:03;42.65;;;26.75;;
62941;SDS011;49042;47.318;19.874;2022-10-17T04:33:04;38.55;;;23.73;;
62941;SDS011;49042;47.318;19.874;2022-10-17T04:36:10;30.42;;;17.50;;
62941;SDS011;49042;47.318;19.874;2022-10-17T04:39:13;32.57;;;19.97;;
62941;SDS011;49042;47.318;19.874;2022-10-17T04:42:15;25.90;;;18.25;;
62941;SDS011;49042;47.318;19.874;2022-10-17T04:45:17;31.98;;;20.77;;
62941;SDS011;49042;47.318;19.874;2022-10-17T04:48:18;29.00;;;18.62;;
62941;SDS011;49042;47.318;19.874;2022-10-17T04:51:20;21.62;;;15.40;;
62941;SDS011;49042;47.318;19.874;2022-10-17T04:54:26;24.67;;;14.98;;
62941;SDS011;49042;47.318;19.874;2022-10-17T04:57:28;23.05;;;15.40;;
62941;SDS011;49042;47.318;19.874;2022-10-17T05:00:30;19.95;;;13.38;;
62941;SDS011;49042;47.318;19.874;2022-10-17T05:03:32;21.65;;;14.25;;
62941;SDS011;49042;47.318;19.874;2022-10-17T05:06:35;28.02;;;13.62;;
62941;SDS011;49042;47.318;19.874;2022-10-17T05:09:38;22.33;;;13.77;;
62941;SDS011;49042;47.318;19.874;2022-10-17T05:12:39;27.17;;;14.07;;
62941;SDS011;49042;47.318;19.874;2022-10-17T05:15:41;25.73;;;14.87;;
62941;SDS011;49042;47.318;19.874;2022-10-17T05:18:43;25.12;;;14.70;;
62941;SDS011;49042;47.318;19.874;2022-10-17T05:21:49;23.00;;;14.18;;
62941;SDS011;49042;47.318;19.874;2022-10-17T05:24:51;25.48;;;14.68;;
62941;SDS011;49042;47.318;19.874;2022-10-17T05:27:52;24.52;;;12.95;;
62941;SDS011;49042;47.318;19.874;2022-10-17T05:30:54;21.87;;;13.88;;
62941;SDS011;49042;47.318;19.874;2022-10-17T05:34:03;28.15;;;14.73;;
62941;SDS011;49042;47.318;19.874;2022-10-17T05:37:09;25.95;;;14.85;;
62941;SDS011;49042;47.318;19.874;2022-10-17T05:40:11;23.33;;;15.50;;
62941;SDS011;49042;47.318;19.874;2022-10-17T05:43:12;23.83;;;14.98;;
62941;SDS011;49042;47.318;19.874;2022-10-17T05:46:15;20.45;;;13.80;;
62941;SDS011;49042;47.318;19.874;2022-10-17T05:49:17;22.25;;;14.50;;
62941;SDS011;49042;47.318;19.874;2022-10-17T05:52:39;22.45;;;14.48;;
62941;SDS011;49042;47.318;19.874;2022-10-17T05:55:45;24.37;;;14.20;;
62941;SDS011;49042;47.318;19.874;2022-10-17T05:58:47;23.45;;;14.38;;
62941;SDS011;49042;47.318;19.874;2022-10-17T06:01:52;26.83;;;14.95;;
62941;SDS011;49042;47.318;19.874;2022-10-17T06:04:55;27.75;;;14.32;;
62941;SDS011;49042;47.318;19.874;2022-10-17T06:07:56;24.55;;;13.57;;
62941;SDS011;49042;47.318;19.874;2022-10-17T06:11:02;45.12;;;14.87;;
62941;SDS011;49042;47.318;19.874;2022-10-17T06:14:10;30.20;;;13.85;;
62941;SDS011;49042;47.318;19.874;2022-10-17T06:17:11;27.23;;;13.45;;
62941;SDS011;49042;47.318;19.874;2022-10-17T06:20:16;31.50;;;14.82;;
62941;SDS011;49042;47.318;19.874;2022-10-17T06:23:18;34.58;;;16.10;;
62941;SDS011;49042;47.318;19.874;2022-10-17T06:26:20;29.58;;;15.40;;
62941;SDS011;49042;47.318;19.874;2022-10-17T06:29:22;35.35;;;16.17;;
62941;SDS011;49042;47.318;19.874;2022-10-17T06:32:24;37.53;;;15.93;;
62941;SDS011;49042;47.318;19.874;2022-10-17T06:35:26;37.97;;;14.40;;
62941;SDS011;49042;47.318;19.874;2022-10-17T06:38:27;20.98;;;13.98;;
62941;SDS011;49042;47.318;19.874;2022-10-17T06:41:30;25.10;;;14.23;;
62941;SDS011;49042;47.318;19.874;2022-10-17T06:44:31;31.77;;;16.02;;
62941;SDS011;49042;47.318;19.874;2022-10-17T06:47:33;28.85;;;13.30;;
62941;SDS011;49042;47.318;19.874;2022-10-17T06:50:36;23.73;;;12.40;;
62941;SDS011;49042;47.318;19.874;2022-10-17T06:53:38;16.98;;;11.07;;
62941;SDS011;49042;47.318;19.874;2022-10-17T06:56:40;20.42;;;11.75;;
62941;SDS011;49042;47.318;19.874;2022-10-17T06:59:42;20.30;;;11.45;;
62941;SDS011;49042;47.318;19.874;2022-10-17T07:02:44;21.35;;;12.00;;
62941;SDS011;49042;47.318;19.874;2022-10-17T07:05:50;24.48;;;14.40;;
62941;SDS011;49042;47.318;19.874;2022-10-17T07:08:55;30.88;;;17.48;;
62941;SDS011;49042;47.318;19.874;2022-10-17T07:11:58;24.90;;;14.73;;
62941;SDS011;49042;47.318;19.874;2022-10-17T07:15:00;18.87;;;13.02;;
62941;SDS011;49042;47.318;19.874;2022-10-17T07:18:04;20.48;;;11.95;;
62941;SDS011;49042;47.318;19.874;2022-10-17T07:21:06;21.90;;;11.45;;
62941;SDS011;49042;47.318;19.874;2022-10-17T07:24:09;20.08;;;11.68;;
62941;SDS011;49042;47.318;19.874;2022-10-17T07:27:11;18.98;;;11.20;;
62941;SDS011;49042;47.318;19.874;2022-10-17T07:30:14;18.23;;;10.80;;
62941;SDS011;49042;47.318;19.874;2022-10-17T07:33:16;15.50;;;9.73;;
62941;SDS011;49042;47.318;19.874;2022-10-17T07:36:17;18.95;;;10.20;;
62941;SDS011;49042;47.318;19.874;2022-10-17T07:39:19;14.50;;;9.80;;
62941;SDS011;49042;47.318;19.874;2022-10-17T07:42:21;17.58;;;9.15;;
62941;SDS011;49042;47.318;19.874;2022-10-17T07:45:23;18.95;;;9.23;;
62941;SDS011;49042;47.318;19.874;2022-10-17T07:48:28;14.63;;;8.68;;
62941;SDS011;49042;47.318;19.874;2022-10-17T07:51:30;15.63;;;8.52;;
62941;SDS011;49042;47.318;19.874;2022-10-17T07:54:32;12.20;;;8.18;;
62941;SDS011;49042;47.318;19.874;2022-10-17T07:57:34;13.18;;;8.23;;
62941;SDS011;49042;47.318;19.874;2022-10-17T08:00:36;18.42;;;8.57;;
62941;SDS011;49042;47.318;19.874;2022-10-17T08:03:38;32.65;;;9.23;;
62941;SDS011;49042;47.318;19.874;2022-10-17T08:06:39;40.72;;;9.68;;
62941;SDS011;49042;47.318;19.874;2022-10-17T08:09:42;13.60;;;7.37;;
62941;SDS011;49042;47.318;19.874;2022-10-17T08:12:44;15.80;;;8.13;;
62941;SDS011;49042;47.318;19.874;2022-10-17T08:15:46;15.57;;;7.75;;
62941;SDS011;49042;47.318;19.874;2022-10-17T08:18:48;12.88;;;8.25;;
62941;SDS011;49042;47.318;19.874;2022-10-17T08:21:50;14.90;;;7.40;;
62941;SDS011;49042;47.318;19.874;2022-10-17T08:24:52;13.80;;;7.60;;
62941;SDS011;49042;47.318;19.874;2022-10-17T08:27:54;14.38;;;7.22;;
62941;SDS011;49042;47.318;19.874;2022-10-17T08:31:06;16.48;;;6.62;;
62941;SDS011;49042;47.318;19.874;2022-10-17T08:34:09;13.90;;;6.87;;
62941;SDS011;49042;47.318;19.874;2022-10-17T08:37:11;18.27;;;6.90;;
62941;SDS011;49042;47.318;19.874;2022-10-17T08:40:18;15.15;;;6.85;;
62941;SDS011;49042;47.318;19.874;2022-10-17T08:46:53;10.50;;;6.95;;
62941;SDS011;49042;47.318;19.874;2022-10-17T08:50:00;14.93;;;7.12;;
62941;SDS011;49042;47.318;19.874;2022-10-17T08:53:21;31.08;;;7.62;;
62941;SDS011;49042;47.318;19.874;2022-10-17T08:56:42;15.97;;;7.10;;
62941;SDS011;49042;47.318;19.874;2022-10-17T08:59:50;13.10;;;6.32;;
62941;SDS011;49042;47.318;19.874;2022-10-17T09:10:17;12.25;;;7.05;;
62941;SDS011;49042;47.318;19.874;2022-10-17T09:13:32;14.35;;;7.20;;
62941;SDS011;49042;47.318;19.874;2022-10-17T09:20:15;16.92;;;7.65;;
62941;SDS011;49042;47.318;19.874;2022-10-17T09:23:21;15.23;;;6.85;;
62941;SDS011;49042;47.318;19.874;2022-10-17T09:26:24;13.32;;;6.68;;
62941;SDS011;49042;47.318;19.874;2022-10-17T09:29:28;19.12;;;7.30;;
62941;SDS011;49042;47.318;19.874;2022-10-17T09:32:38;8.95;;;6.28;;
62941;SDS011;49042;47.318;19.874;2022-10-17T09:35:41;10.55;;;6.12;;
62941;SDS011;49042;47.318;19.874;2022-10-17T09:38:46;11.20;;;6.28;;
62941;SDS011;49042;47.318;19.874;2022-10-17T09:41:54;13.30;;;5.87;;
62941;SDS011;49042;47.318;19.874;2022-10-17T09:45:12;14.85;;;5.85;;
62941;SDS011;49042;47.318;19.874;2022-10-17T09:48:25;10.15;;;4.90;;
62941;SDS011;49042;47.318;19.874;2022-10-17T09:51:37;12.85;;;4.87;;
62941;SDS011;49042;47.318;19.874;2022-10-17T09:54:44;12.23;;;5.70;;
62941;SDS011;49042;47.318;19.874;2022-10-17T09:57:57;9.75;;;4.97;;
62941;SDS011;49042;47.318;19.874;2022-10-17T10:01:14;13.38;;;5.40;;
62941;SDS011;49042;47.318;19.874;2022-10-17T10:04:24;8.52;;;4.75;;
62941;SDS011;49042;47.318;19.874;2022-10-17T10:07:35;13.32;;;4.50;;
62941;SDS011;49042;47.318;19.874;2022-10-17T10:10:38;11.18;;;4.20;;
62941;SDS011;49042;47.318;19.874;2022-10-17T10:13:46;9.70;;;4.30;;
62941;SDS011;49042;47.318;19.874;2022-10-17T10:16:50;12.43;;;4.95;;
62941;SDS011;49042;47.318;19.874;2022-10-17T10:19:54;10.55;;;4.47;;
62941;SDS011;49042;47.318;19.874;2022-10-17T10:23:15;7.05;;;4.30;;
62941;SDS011;49042;47.318;19.874;2022-10-17T10:26:26;12.07;;;4.20;;
62941;SDS011;49042;47.318;19.874;2022-10-17T10:32:34;8.25;;;4.35;;
62941;SDS011;49042;47.318;19.874;2022-10-17T10:35:37;7.62;;;4.28;;
62941;SDS011;49042;47.318;19.874;2022-10-17T10:38:40;13.32;;;4.20;;
62941;SDS011;49042;47.318;19.874;2022-10-17T10:41:48;9.52;;;4.35;;
62941;SDS011;49042;47.318;19.874;2022-10-17T10:44:51;8.23;;;4.50;;
62941;SDS011;49042;47.318;19.874;2022-10-17T10:47:57;13.77;;;4.32;;
62941;SDS011;49042;47.318;19.874;2022-10-17T10:51:03;12.80;;;4.00;;
62941;SDS011;49042;47.318;19.874;2022-10-17T10:54:20;8.10;;;4.07;;
62941;SDS011;49042;47.318;19.874;2022-10-17T10:57:30;10.65;;;4.20;;
62941;SDS011;49042;47.318;19.874;2022-10-17T11:00:35;7.72;;;4.05;;
62941;SDS011;49042;47.318;19.874;2022-10-17T11:03:40;11.85;;;3.87;;
62941;SDS011;49042;47.318;19.874;2022-10-17T11:06:58;7.10;;;3.12;;
62941;SDS011;49042;47.318;19.874;2022-10-17T11:10:58;10.10;;;3.40;;
62941;SDS011;49042;47.318;19.874;2022-10-17T11:14:15;6.30;;;3.78;;
62941;SDS011;49042;47.318;19.874;2022-10-17T11:17:41;6.37;;;3.72;;
62941;SDS011;49042;47.318;19.874;2022-10-17T11:20:56;9.23;;;3.58;;
62941;SDS011;49042;47.318;19.874;2022-10-17T11:24:24;5.60;;;3.40;;
62941;SDS011;49042;47.318;19.874;2022-10-17T11:27:31;6.43;;;3.65;;
62941;SDS011;49042;47.318;19.874;2022-10-17T11:30:40;5.80;;;3.40;;
62941;SDS011;49042;47.318;19.874;2022-10-17T11:34:10;6.37;;;3.58;;
62941;SDS011;49042;47.318;19.874;2022-10-17T11:37:21;7.85;;;3.60;;
62941;SDS011;49042;47.318;19.874;2022-10-17T11:40:28;12.48;;;3.33;;
62941;SDS011;49042;47.318;19.874;2022-10-17T11:43:39;7.22;;;2.72;;
62941;SDS011;49042;47.318;19.874;2022-10-17T11:46:59;13.32;;;3.90;;
62941;SDS011;49042;47.318;19.874;2022-10-17T11:50:29;4.40;;;3.00;;
62941;SDS011;49042;47.318;19.874;2022-10-17T11:53:58;8.30;;;3.65;;
62941;SDS011;49042;47.318;19.874;2022-10-17T11:57:20;8.35;;;3.67;;
62941;SDS011;49042;47.318;19.874;2022-10-17T12:13:54;6.73;;;3.20;;
62941;SDS011;49042;47.318;19.874;2022-10-17T12:16:57;23.20;;;4.18;;
62941;SDS011;49042;47.318;19.874;2022-10-17T12:23:29;6.37;;;3.20;;
62941;SDS011;49042;47.318;19.874;2022-10-17T12:26:32;10.65;;;3.62;;
62941;SDS011;49042;47.318;19.874;2022-10-17T12:29:34;6.47;;;2.90;;
62941;SDS011;49042;47.318;19.874;2022-10-17T12:32:37;5.32;;;3.45;;
62941;SDS011;49042;47.318;19.874;2022-10-17T12:42:28;7.75;;;3.53;;
62941;SDS011;49042;47.318;19.874;2022-10-17T12:45:45;11.50;;;3.50;;
62941;SDS011;49042;47.318;19.874;2022-10-17T12:49:03;6.87;;;3.35;;
62941;SDS011;49042;47.318;19.874;2022-10-17T12:55:27;7.87;;;3.28;;
62941;SDS011;49042;47.318;19.874;2022-10-17T12:58:29;8.10;;;3.30;;
62941;SDS011;49042;47.318;19.874;2022-10-17T13:01:31;43.25;;;3.85;;
62941;SDS011;49042;47.318;19.874;2022-10-17T13:04:36;7.62;;;3.40;;
62941;SDS011;49042;47.318;19.874;2022-10-17T13:07:39;9.82;;;3.12;;
62941;SDS011;49042;47.318;19.874;2022-10-17T13:10:45;13.85;;;3.53;;
62941;SDS011;49042;47.318;19.874;2022-10-17T13:13:53;9.93;;;3.40;;
62941;SDS011;49042;47.318;19.874;2022-10-17T13:17:02;9.35;;;3.60;;
62941;SDS011;49042;47.318;19.874;2022-10-17T13:20:16;5.35;;;2.83;;
62941;SDS011;49042;47.318;19.874;2022-10-17T13:23:30;6.35;;;3.47;;
62941;SDS011;49042;47.318;19.874;2022-10-17T13:26:36;5.82;;;3.30;;
62941;SDS011;49042;47.318;19.874;2022-10-17T13:29:38;8.10;;;3.75;;
62941;SDS011;49042;47.318;19.874;2022-10-17T13:32:44;5.53;;;3.35;;
62941;SDS011;49042;47.318;19.874;2022-10-17T13:35:46;7.10;;;3.67;;
62941;SDS011;49042;47.318;19.874;2022-10-17T13:39:05;17.17;;;4.07;;
62941;SDS011;49042;47.318;19.874;2022-10-17T13:42:20;5.12;;;3.50;;
62941;SDS011;49042;47.318;19.874;2022-10-17T13:45:32;7.03;;;3.00;;
62941;SDS011;49042;47.318;19.874;2022-10-17T13:48:37;10.70;;;3.75;;
62941;SDS011;49042;47.318;19.874;2022-10-17T13:51:41;13.85;;;3.53;;
62941;SDS011;49042;47.318;19.874;2022-10-17T13:54:46;10.07;;;3.70;;
62941;SDS011;49042;47.318;19.874;2022-10-17T13:57:51;18.10;;;3.60;;
62941;SDS011;49042;47.318;19.874;2022-10-17T14:00:53;6.95;;;3.05;;
62941;SDS011;49042;47.318;19.874;2022-10-17T14:03:55;21.62;;;3.65;;
62941;SDS011;49042;47.318;19.874;2022-10-17T14:07:18;10.98;;;3.28;;
62941;SDS011;49042;47.318;19.874;2022-10-17T14:10:30;13.40;;;3.20;;
62941;SDS011;49042;47.318;19.874;2022-10-17T14:13:35;10.18;;;3.20;;
62941;SDS011;49042;47.318;19.874;2022-10-17T14:16:40;8.13;;;3.15;;
62941;SDS011;49042;47.318;19.874;2022-10-17T14:22:56;8.65;;;3.50;;
62941;SDS011;49042;47.318;19.874;2022-10-17T14:26:22;13.75;;;3.83;;
62941;SDS011;49042;47.318;19.874;2022-10-17T14:29:28;6.87;;;3.10;;
62941;SDS011;49042;47.318;19.874;2022-10-17T14:32:50;14.85;;;3.92;;
62941;SDS011;49042;47.318;19.874;2022-10-17T14:35:57;4.50;;;3.08;;
62941;SDS011;49042;47.318;19.874;2022-10-17T14:39:02;5.70;;;3.20;;
62941;SDS011;49042;47.318;19.874;2022-10-17T14:42:05;9.60;;;3.78;;
62941;SDS011;49042;47.318;19.874;2022-10-17T14:45:10;16.90;;;6.03;;
62941;SDS011;49042;47.318;19.874;2022-10-17T14:48:15;27.52;;;7.32;;
62941;SDS011;49042;47.318;19.874;2022-10-17T14:51:18;11.73;;;3.50;;
62941;SDS011;49042;47.318;19.874;2022-10-17T14:54:25;12.30;;;3.58;;
62941;SDS011;49042;47.318;19.874;2022-10-17T15:00:34;11.93;;;4.15;;
62941;SDS011;49042;47.318;19.874;2022-10-17T15:03:35;14.98;;;4.55;;
62941;SDS011;49042;47.318;19.874;2022-10-17T15:06:37;13.62;;;3.85;;
62941;SDS011;49042;47.318;19.874;2022-10-17T15:09:41;16.02;;;4.25;;
62941;SDS011;49042;47.318;19.874;2022-10-17T15:12:44;9.60;;;3.80;;
62941;SDS011;49042;47.318;19.874;2022-10-17T15:16:00;14.85;;;4.20;;
62941;SDS011;49042;47.318;19.874;2022-10-17T15:19:01;14.73;;;4.45;;
62941;SDS011;49042;47.318;19.874;2022-10-17T15:22:03;19.62;;;3.92;;
62941;SDS011;49042;47.318;19.874;2022-10-17T15:25:05;8.18;;;3.67;;
62941;SDS011;49042;47.318;19.874;2022-10-17T15:28:07;9.02;;;3.70;;
62941;SDS011;49042;47.318;19.874;2022-10-17T15:31:14;7.30;;;3.90;;
62941;SDS011;49042;47.318;19.874;2022-10-17T15:34:18;19.77;;;3.80;;
62941;SDS011;49042;47.318;19.874;2022-10-17T15:37:21;9.93;;;3.78;;
62941;SDS011;49042;47.318;19.874;2022-10-17T15:40:25;13.13;;;4.65;;
62941;SDS011;49042;47.318;19.874;2022-10-17T15:43:29;29.87;;;4.90;;
62941;SDS011;49042;47.318;19.874;2022-10-17T15:46:32;26.15;;;10.55;;
62941;SDS011;49042;47.318;19.874;2022-10-17T15:49:35;23.27;;;11.52;;
62941;SDS011;49042;47.318;19.874;2022-10-17T15:52:36;17.08;;;7.55;;
62941;SDS011;49042;47.318;19.874;2022-10-17T15:55:38;19.65;;;7.55;;
62941;SDS011;49042;47.318;19.874;2022-10-17T15:58:41;15.48;;;6.62;;
62941;SDS011;49042;47.318;19.874;2022-10-17T16:01:42;24.58;;;7.53;;
62941;SDS011;49042;47.318;19.874;2022-10-17T16:04:44;34.17;;;11.88;;
62941;SDS011;49042;47.318;19.874;2022-10-17T16:07:47;20.62;;;11.12;;
62941;SDS011;49042;47.318;19.874;2022-10-17T16:10:50;16.52;;;11.43;;
62941;SDS011;49042;47.318;19.874;2022-10-17T16:13:52;12.57;;;6.85;;
62941;SDS011;49042;47.318;19.874;2022-10-17T16:16:57;9.10;;;6.47;;
62941;SDS011;49042;47.318;19.874;2022-10-17T16:20:00;8.73;;;5.25;;
62941;SDS011;49042;47.318;19.874;2022-10-17T16:23:02;7.35;;;4.80;;
62941;SDS011;49042;47.318;19.874;2022-10-17T16:26:04;7.28;;;4.20;;
62941;SDS011;49042;47.318;19.874;2022-10-17T16:29:06;16.67;;;6.28;;
62941;SDS011;49042;47.318;19.874;2022-10-17T16:32:09;31.37;;;7.25;;
62941;SDS011;49042;47.318;19.874;2022-10-17T16:35:15;15.70;;;6.62;;
62941;SDS011;49042;47.318;19.874;2022-10-17T16:38:19;17.52;;;6.37;;
62941;SDS011;49042;47.318;19.874;2022-10-17T16:41:31;24.70;;;6.97;;
62941;SDS011;49042;47.318;19.874;2022-10-17T16:44:35;16.17;;;7.65;;
62941;SDS011;49042;47.318;19.874;2022-10-17T16:47:37;27.58;;;8.77;;
62941;SDS011;49042;47.318;19.874;2022-10-17T16:50:38;17.62;;;8.65;;
62941;SDS011;49042;47.318;19.874;2022-10-17T16:53:41;35.50;;;9.73;;
62941;SDS011;49042;47.318;19.874;2022-10-17T16:56:46;20.17;;;9.75;;
62941;SDS011;49042;47.318;19.874;2022-10-17T16:59:47;34.97;;;11.82;;
62941;SDS011;49042;47.318;19.874;2022-10-17T17:02:49;22.60;;;13.57;;
62941;SDS011;49042;47.318;19.874;2022-10-17T17:05:51;22.10;;;11.80;;
62941;SDS011;49042;47.318;19.874;2022-10-17T17:08:53;18.33;;;9.07;;
62941;SDS011;49042;47.318;19.874;2022-10-17T17:11:55;14.18;;;8.52;;
62941;SDS011;49042;47.318;19.874;2022-10-17T17:14:58;13.77;;;7.57;;
62941;SDS011;49042;47.318;19.874;2022-10-17T17:18:03;12.18;;;8.07;;
62941;SDS011;49042;47.318;19.874;2022-10-17T17:21:09;14.98;;;8.57;;
62941;SDS011;49042;47.318;19.874;2022-10-17T17:24:12;12.40;;;8.32;;
62941;SDS011;49042;47.318;19.874;2022-10-17T17:27:14;16.80;;;9.95;;
62941;SDS011;49042;47.318;19.874;2022-10-17T17:30:16;23.60;;;14.82;;
62941;SDS011;49042;47.318;19.874;2022-10-17T17:33:18;24.42;;;10.57;;
62941;SDS011;49042;47.318;19.874;2022-10-17T17:36:26;25.90;;;13.93;;
62941;SDS011;49042;47.318;19.874;2022-10-17T17:39:30;30.70;;;14.07;;
62941;SDS011;49042;47.318;19.874;2022-10-17T17:42:32;32.33;;;15.60;;
62941;SDS011;49042;47.318;19.874;2022-10-17T17:45:35;36.38;;;21.23;;
62941;SDS011;49042;47.318;19.874;2022-10-17T17:48:38;47.40;;;23.30;;
62941;SDS011;49042;47.318;19.874;2022-10-17T17:51:41;60.65;;;30.62;;
62941;SDS011;49042;47.318;19.874;2022-10-17T17:54:47;83.55;;;46.28;;
62941;SDS011;49042;47.318;19.874;2022-10-17T17:57:50;69.68;;;37.20;;
